メインページ
METAR-TAF:

METAR-TAF

空港 :

ヴィエンチャン, ラオス

ワットタイ国際空港

緯度: 17-57N, 経度: 102-34E, 海抜: 171m

現時点の気象観測

当レポートは16分前の05:30(UTC)に作成
東/北東の風 6kt
気温 30°C
湿度 75%
気圧 1007 hPa
視程10km以上
高度2000ftの千切れ雲あり
高度5000ftの雲は散在している

METAR: VLVT 200530Z 06006KT 9999 BKN020 SCT050 30/25 Q1007 NOSIG

時間: 12:46 (05:46 UTC)

予報

当レポートは46分前の05:00(UTC)に作成
予報は20日の 06時(UTC)から 21日の 06時(UTC)まで有効
の風 4kt
視程10km以上
高度2000ftの雲は散在している
高度4000ftの雲は散在している
20日の 16時(UTC)から 20日の 20時(UTC)まで一時的に
視程: 4000m
高度1600ftの雲はほとんどない
高度4000ftの雲は散在している

TAF: VLVT 200500Z 2006/2106 09004KT 9999 SCT020 SCT040 TEMPO 2016/2020 4000 BR FEW016 SCT040

4,000以上の空港の気象観測と天気予報(METAR報とTAF報)

利用可能な観測所は地図上に黄色い丸と赤い丸で示す。

丸の上にカーソルを重ねると観測所名を参照できる。

次にクリックすると気象観測と天気予報を参照できる。

マップの切り替え:黒色「×」印の緑ボタンをクリックして拡大、「-」印の緑ボタンをクリックして縮小、緑色の三角印をクリックして隣りの地図に切り替え


METAR-TAF: